createdAt,value
2022-12-29T00:01:57.897Z,36.00
2022-12-29T00:04:35.184Z,35.96
2022-12-29T00:07:06.183Z,35.91
2022-12-29T00:09:40.485Z,35.93
2022-12-29T00:12:13.287Z,36.13
2022-12-29T00:14:59.688Z,36.04
2022-12-29T00:17:30.783Z,35.97
2022-12-29T00:20:22.852Z,35.85
2022-12-29T00:23:14.015Z,36.17
2022-12-29T00:26:00.636Z,35.69
2022-12-29T00:28:46.380Z,35.94
2022-12-29T00:31:32.618Z,36.14
2022-12-29T00:34:21.018Z,35.94
2022-12-29T00:36:51.255Z,36.00
2022-12-29T00:39:42.751Z,36.13
2022-12-29T00:42:29.030Z,36.13
2022-12-29T00:44:56.804Z,36.02
2022-12-29T00:47:27.796Z,36.14
2022-12-29T00:50:03.901Z,36.08
2022-12-29T00:52:37.328Z,35.90
2022-12-29T00:55:05.207Z,35.98
2022-12-29T00:57:35.486Z,35.78
2022-12-29T01:00:06.466Z,35.83
2022-12-29T01:02:40.356Z,35.70
2022-12-29T01:05:08.168Z,35.92
2022-12-29T01:07:40.223Z,35.90
2022-12-29T01:10:11.335Z,35.68
2022-12-29T01:12:42.356Z,35.72
2022-12-29T01:15:14.578Z,35.96
2022-12-29T01:17:46.142Z,35.91
2022-12-29T01:20:13.945Z,35.84
2022-12-29T01:22:48.321Z,35.88
2022-12-29T01:25:25.544Z,36.15
2022-12-29T01:27:56.355Z,36.13
2022-12-29T01:30:27.079Z,35.97
2022-12-29T01:33:00.532Z,35.98
2022-12-29T01:35:31.437Z,35.88
2022-12-29T01:38:02.403Z,35.65
2022-12-29T01:40:32.773Z,35.77
2022-12-29T01:43:02.875Z,35.84
2022-12-29T01:45:30.613Z,36.19
2022-12-29T01:48:07.907Z,35.68
2022-12-29T01:50:56.157Z,35.72
2022-12-29T01:53:31.464Z,35.94
2022-12-29T01:56:08.332Z,35.76
2022-12-29T01:58:42.393Z,35.99
2022-12-29T02:01:14.011Z,35.96
2022-12-29T02:03:42.383Z,36.06
2022-12-29T02:06:22.222Z,35.77
2022-12-29T02:08:53.318Z,35.40
2022-12-29T02:11:28.784Z,35.30
2022-12-29T02:14:00.970Z,35.47
2022-12-29T02:16:42.936Z,35.19
2022-12-29T02:19:31.628Z,35.06
2022-12-29T02:22:05.344Z,34.95
2022-12-29T02:25:10.972Z,34.73
2022-12-29T02:27:59.193Z,34.49
2022-12-29T02:30:29.623Z,34.48
2022-12-29T02:33:29.279Z,34.53
2022-12-29T02:36:09.067Z,34.19
2022-12-29T02:38:42.490Z,34.12
2022-12-29T02:41:34.776Z,33.89
2022-12-29T02:44:23.955Z,33.83
2022-12-29T02:46:57.633Z,33.68
2022-12-29T02:49:40.608Z,33.84
2022-12-29T02:52:23.595Z,33.88
2022-12-29T02:54:57.481Z,33.67
2022-12-29T02:57:30.483Z,33.70
2022-12-29T03:00:11.592Z,33.80
2022-12-29T03:03:10.802Z,33.73
2022-12-29T03:05:57.449Z,33.24
2022-12-29T03:09:18.838Z,33.31
2022-12-29T03:12:14.596Z,33.57
2022-12-29T03:15:36.211Z,33.23
2022-12-29T03:18:14.508Z,33.34
2022-12-29T03:20:58.203Z,33.39
2022-12-29T03:23:28.070Z,33.31
2022-12-29T03:26:05.374Z,33.54
2022-12-29T03:28:42.409Z,33.37
2022-12-29T03:31:26.807Z,33.50
2022-12-29T03:34:00.682Z,33.79
2022-12-29T03:36:46.522Z,33.87
2022-12-29T03:39:22.131Z,34.26
2022-12-29T03:41:53.831Z,34.44
2022-12-29T03:44:43.156Z,34.55
2022-12-29T03:47:14.272Z,34.69
2022-12-29T03:49:45.162Z,34.77
2022-12-29T03:52:18.462Z,35.21
2022-12-29T03:54:48.105Z,34.89
2022-12-29T03:57:15.880Z,35.15
2022-12-29T03:59:51.585Z,35.00
2022-12-29T04:02:25.834Z,35.48
2022-12-29T04:05:06.568Z,35.46
2022-12-29T04:07:37.526Z,35.31
2022-12-29T04:10:15.335Z,35.50
2022-12-29T04:12:47.797Z,35.63
2022-12-29T04:15:21.104Z,35.36
2022-12-29T04:17:56.275Z,35.65
2022-12-29T04:20:48.157Z,35.46
2022-12-29T04:23:18.773Z,35.20
2022-12-29T04:25:48.661Z,35.67
2022-12-29T04:28:25.204Z,35.77
2022-12-29T04:31:18.799Z,35.60
2022-12-29T04:33:50.167Z,35.74
2022-12-29T04:36:17.608Z,35.51
2022-12-29T04:38:52.418Z,35.52
2022-12-29T04:41:20.520Z,35.75
2022-12-29T04:43:49.260Z,35.44
2022-12-29T04:46:34.958Z,35.57
2022-12-29T04:49:13.915Z,35.62
2022-12-29T04:51:55.900Z,35.61
2022-12-29T04:54:24.673Z,35.69
2022-12-29T04:57:08.069Z,35.81
2022-12-29T04:59:38.838Z,35.80
2022-12-29T05:02:07.638Z,36.10
2022-12-29T05:04:39.664Z,35.74
2022-12-29T05:07:10.809Z,35.68
2022-12-29T05:09:41.728Z,35.88
2022-12-29T05:12:13.157Z,35.92
2022-12-29T05:14:54.180Z,35.81
2022-12-29T05:17:23.875Z,35.51
2022-12-29T05:19:51.866Z,35.80
2022-12-29T05:22:21.610Z,36.00
2022-12-29T05:24:55.227Z,35.49
2022-12-29T05:27:26.572Z,35.63
2022-12-29T05:30:16.569Z,35.72
2022-12-29T05:32:44.992Z,35.64
2022-12-29T05:35:12.626Z,35.79
2022-12-29T05:37:46.239Z,35.86
2022-12-29T05:40:16.755Z,35.57
2022-12-29T05:42:45.251Z,35.79
2022-12-29T05:45:25.844Z,35.97
2022-12-29T05:48:20.943Z,35.81
2022-12-29T05:51:29.803Z,35.95
2022-12-29T05:54:05.016Z,35.60
2022-12-29T05:56:35.213Z,35.81
2022-12-29T05:59:08.883Z,35.77
2022-12-29T06:01:37.354Z,35.52
2022-12-29T06:04:13.049Z,35.48
2022-12-29T06:06:49.692Z,35.80
2022-12-29T06:09:24.721Z,36.03
2022-12-29T06:11:58.824Z,35.79
2022-12-29T06:14:27.079Z,35.92
2022-12-29T06:16:57.824Z,35.88
2022-12-29T06:19:31.038Z,35.65
2022-12-29T06:22:01.735Z,35.88
2022-12-29T06:24:29.859Z,35.88
2022-12-29T06:26:59.737Z,35.96
2022-12-29T06:29:38.196Z,35.90
2022-12-29T06:32:10.992Z,35.88
2022-12-29T06:34:54.752Z,35.88
2022-12-29T06:37:27.531Z,35.88
2022-12-29T06:39:55.938Z,35.85
2022-12-29T06:42:29.730Z,36.20
2022-12-29T06:45:19.789Z,36.01
2022-12-29T06:47:49.518Z,36.23
2022-12-29T06:50:19.550Z,36.03
2022-12-29T06:52:52.112Z,35.78
2022-12-29T06:55:24.667Z,36.04
2022-12-29T06:57:55.961Z,35.85
2022-12-29T07:00:24.948Z,35.80
2022-12-29T07:02:56.149Z,35.95
2022-12-29T07:05:23.766Z,36.03
2022-12-29T07:07:52.120Z,35.80
2022-12-29T07:10:23.690Z,36.09
2022-12-29T07:12:57.152Z,35.93
2022-12-29T07:15:30.322Z,36.16
2022-12-29T07:17:58.794Z,36.12
2022-12-29T07:20:30.713Z,35.48
2022-12-29T07:23:00.887Z,35.24
2022-12-29T07:25:28.872Z,34.74
2022-12-29T07:28:02.505Z,34.16
2022-12-29T07:30:34.086Z,33.64
2022-12-29T07:33:07.794Z,33.58
2022-12-29T07:35:39.299Z,33.69
2022-12-29T07:38:09.689Z,33.89
2022-12-29T07:40:40.162Z,34.16
2022-12-29T07:43:13.436Z,33.99
2022-12-29T07:45:54.484Z,34.18
2022-12-29T07:48:30.559Z,34.05
2022-12-29T07:51:00.901Z,33.85
2022-12-29T07:53:31.205Z,33.94
2022-12-29T07:56:01.674Z,33.30
2022-12-29T07:58:33.090Z,32.37
2022-12-29T08:01:07.527Z,32.63
2022-12-29T08:03:42.618Z,32.29
2022-12-29T08:06:19.843Z,32.20
2022-12-29T08:08:50.714Z,31.87
2022-12-29T08:11:29.525Z,31.29
2022-12-29T08:14:07.648Z,31.38
2022-12-29T08:16:38.939Z,31.10
2022-12-29T08:19:11.429Z,31.42
2022-12-29T08:21:48.161Z,31.81
2022-12-29T08:24:18.502Z,31.29
2022-12-29T08:27:12.025Z,31.04
2022-12-29T08:29:47.005Z,31.76
2022-12-29T08:32:15.821Z,30.81
2022-12-29T08:34:51.320Z,31.12
2022-12-29T08:37:26.308Z,30.63
2022-12-29T08:40:05.050Z,30.97
2022-12-29T08:42:37.594Z,30.84
2022-12-29T08:45:09.766Z,31.06
2022-12-29T08:47:41.120Z,30.59
2022-12-29T08:50:13.451Z,31.24
2022-12-29T08:52:52.578Z,30.82
2022-12-29T08:55:26.231Z,31.54
2022-12-29T08:57:58.547Z,32.11
2022-12-29T09:00:37.250Z,32.35
2022-12-29T09:03:07.827Z,32.60
2022-12-29T09:05:38.919Z,32.92
2022-12-29T09:08:10.400Z,33.14
2022-12-29T09:10:41.658Z,33.10
2022-12-29T09:13:16.144Z,33.37
2022-12-29T09:15:49.623Z,33.72
2022-12-29T09:18:27.340Z,33.79
2022-12-29T09:21:09.136Z,33.93
2022-12-29T09:23:42.599Z,34.07
2022-12-29T09:26:12.808Z,34.30
2022-12-29T09:28:43.990Z,34.33
2022-12-29T09:31:16.934Z,34.52
2022-12-29T09:33:47.927Z,34.63
2022-12-29T09:36:15.939Z,34.73
2022-12-29T09:38:49.487Z,35.01
2022-12-29T09:41:25.003Z,34.98
2022-12-29T09:44:04.286Z,34.88
2022-12-29T09:46:52.425Z,34.92
2022-12-29T09:49:44.148Z,34.95
2022-12-29T09:52:24.970Z,35.05
2022-12-29T09:55:02.407Z,35.08
2022-12-29T09:57:43.139Z,34.85
2022-12-29T10:00:55.453Z,35.11
2022-12-29T10:03:45.383Z,35.06
2022-12-29T10:07:28.009Z,35.39
2022-12-29T10:10:04.770Z,35.44
2022-12-29T10:12:51.419Z,35.36
2022-12-29T10:15:50.417Z,35.46
2022-12-29T10:18:31.458Z,35.54
2022-12-29T10:21:22.996Z,35.09
2022-12-29T10:23:54.169Z,35.44
2022-12-29T10:26:32.884Z,35.47
2022-12-29T10:29:17.699Z,35.63
2022-12-29T10:31:59.790Z,35.79
2022-12-29T10:34:43.374Z,35.62
2022-12-29T10:37:35.533Z,35.59
2022-12-29T10:40:18.222Z,35.79
2022-12-29T10:42:57.907Z,35.92
2022-12-29T10:45:31.818Z,35.83
2022-12-29T10:48:25.913Z,36.05
2022-12-29T10:51:04.171Z,35.96
2022-12-29T10:53:47.650Z,35.81
2022-12-29T10:56:47.798Z,35.85
2022-12-29T10:59:22.541Z,35.90
2022-12-29T11:02:12.561Z,36.00
2022-12-29T11:05:25.082Z,36.05
2022-12-29T11:08:01.199Z,36.15
2022-12-29T11:10:35.174Z,35.80
2022-12-29T11:13:26.326Z,35.88
2022-12-29T11:15:54.097Z,35.84
2022-12-29T11:18:26.595Z,36.00
2022-12-29T11:21:02.643Z,35.91
2022-12-29T11:23:37.024Z,35.87
2022-12-29T11:26:19.156Z,36.02
2022-12-29T11:29:08.413Z,36.26
2022-12-29T11:31:50.730Z,36.07
2022-12-29T11:34:35.704Z,36.34
2022-12-29T11:37:16.593Z,36.10
2022-12-29T11:39:53.304Z,36.18
2022-12-29T11:42:29.562Z,36.33
2022-12-29T11:45:10.831Z,35.85
2022-12-29T11:47:38.785Z,36.10
2022-12-29T11:50:11.292Z,36.22
2022-12-29T11:52:40.749Z,36.27
2022-12-29T11:55:24.289Z,36.14
2022-12-29T11:57:54.725Z,36.29
2022-12-29T12:00:28.724Z,36.20
2022-12-29T12:03:08.684Z,36.17
2022-12-29T12:05:53.587Z,36.22
2022-12-29T12:08:36.948Z,36.20
2022-12-29T12:11:17.549Z,36.33
2022-12-29T12:13:53.641Z,36.25
2022-12-29T12:16:25.772Z,36.43
2022-12-29T12:19:42.158Z,36.55
2022-12-29T12:22:38.530Z,36.66
2022-12-29T12:25:14.122Z,36.49
2022-12-29T12:27:52.560Z,36.25
2022-12-29T12:30:24.247Z,36.65
2022-12-29T12:32:59.728Z,36.40
2022-12-29T12:35:27.351Z,36.30
2022-12-29T12:38:21.087Z,36.53
2022-12-29T12:41:00.297Z,36.42
2022-12-29T12:43:50.647Z,36.38
2022-12-29T12:46:53.186Z,36.85
2022-12-29T12:49:29.330Z,36.67
2022-12-29T12:52:10.147Z,36.52
2022-12-29T12:54:40.829Z,36.90
2022-12-29T12:57:18.454Z,36.22
2022-12-29T13:00:14.747Z,35.21
2022-12-29T13:03:13.572Z,34.26
2022-12-29T13:06:02.140Z,32.77
2022-12-29T13:08:57.767Z,32.20
2022-12-29T13:11:43.402Z,31.86
2022-12-29T13:14:32.233Z,31.91
2022-12-29T13:17:25.906Z,31.66
2022-12-29T13:20:21.439Z,31.95
2022-12-29T13:22:58.232Z,31.30
2022-12-29T13:25:39.134Z,31.49
2022-12-29T13:28:20.407Z,31.39
2022-12-29T13:31:22.098Z,30.39
2022-12-29T13:34:05.096Z,29.73
2022-12-29T13:36:50.531Z,28.86
2022-12-29T13:39:31.689Z,27.49
2022-12-29T13:42:01.819Z,27.10
2022-12-29T13:44:58.986Z,27.61
2022-12-29T13:47:42.754Z,28.36
2022-12-29T13:50:28.788Z,28.34
2022-12-29T13:52:59.821Z,28.86
2022-12-29T13:55:41.808Z,28.87
2022-12-29T13:58:48.867Z,28.53
2022-12-29T14:01:25.307Z,29.71
2022-12-29T14:04:39.295Z,29.57
2022-12-29T14:07:18.938Z,30.30
2022-12-29T14:09:59.125Z,30.82
2022-12-29T14:12:43.228Z,30.72
2022-12-29T14:15:17.348Z,31.12
2022-12-29T14:18:22.669Z,31.62
2022-12-29T14:20:59.740Z,31.93
2022-12-29T14:23:38.922Z,32.58
2022-12-29T14:26:08.339Z,33.46
2022-12-29T14:28:40.757Z,33.99
2022-12-29T14:31:23.208Z,34.13
2022-12-29T14:34:13.582Z,34.56
2022-12-29T14:36:54.817Z,34.40
2022-12-29T14:39:36.696Z,34.65
2022-12-29T14:42:13.954Z,34.68
2022-12-29T14:45:06.435Z,34.35
2022-12-29T14:47:45.591Z,34.15
2022-12-29T14:50:23.083Z,33.54
2022-12-29T14:53:02.122Z,33.13
2022-12-29T14:55:56.906Z,33.95
2022-12-29T14:58:47.193Z,34.13
2022-12-29T15:01:22.004Z,34.18
2022-12-29T15:03:52.296Z,34.71
2022-12-29T15:06:23.440Z,34.43
2022-12-29T15:09:02.890Z,34.49
2022-12-29T15:11:45.757Z,34.48
2022-12-29T15:14:34.234Z,33.74
2022-12-29T15:17:31.884Z,33.40
2022-12-29T15:20:30.211Z,33.11
2022-12-29T15:23:21.431Z,32.84
2022-12-29T15:26:09.976Z,32.20
2022-12-29T15:28:44.275Z,31.75
2022-12-29T15:31:30.782Z,32.68
2022-12-29T15:34:28.213Z,32.57
2022-12-29T15:37:01.674Z,32.53
2022-12-29T15:39:32.391Z,32.24
2022-12-29T15:42:17.798Z,32.50
2022-12-29T15:44:58.090Z,32.52
2022-12-29T15:47:51.188Z,32.01
2022-12-29T15:50:38.411Z,31.74
2022-12-29T15:53:14.862Z,31.57
2022-12-29T15:55:48.597Z,30.23
2022-12-29T15:58:24.096Z,30.38
2022-12-29T16:00:54.372Z,31.05
2022-12-29T16:03:30.897Z,31.88
2022-12-29T16:06:31.119Z,32.53
2022-12-29T16:09:05.323Z,33.38
2022-12-29T16:11:40.620Z,33.83
2022-12-29T16:14:23.707Z,34.24
2022-12-29T16:16:54.004Z,34.57
2022-12-29T16:19:34.425Z,34.51
2022-12-29T16:22:12.722Z,35.18
2022-12-29T16:24:46.367Z,35.62
2022-12-29T16:27:32.510Z,35.38
2022-12-29T16:30:06.965Z,35.79
2022-12-29T16:32:47.791Z,36.06
2022-12-29T16:35:28.985Z,36.12
2022-12-29T16:38:17.285Z,36.49
2022-12-29T16:40:54.233Z,37.01
2022-12-29T16:43:35.225Z,36.98
2022-12-29T16:46:03.310Z,37.12
2022-12-29T16:48:56.139Z,37.34
2022-12-29T16:51:38.792Z,37.70
2022-12-29T16:54:09.671Z,37.72
2022-12-29T16:56:39.884Z,38.07
2022-12-29T16:59:24.786Z,37.92
2022-12-29T17:01:57.225Z,37.92
2022-12-29T17:04:32.516Z,38.01
2022-12-29T17:07:16.288Z,38.45
2022-12-29T17:09:49.670Z,38.23
2022-12-29T17:12:27.367Z,38.18
2022-12-29T17:14:58.857Z,38.32
2022-12-29T17:17:40.306Z,38.38
2022-12-29T17:20:21.397Z,38.32
2022-12-29T17:23:00.671Z,38.49
2022-12-29T17:25:40.404Z,38.77
2022-12-29T17:28:17.132Z,38.69
2022-12-29T17:30:50.541Z,38.81
2022-12-29T17:33:22.805Z,38.79
2022-12-29T17:35:57.387Z,38.65
2022-12-29T17:38:35.446Z,38.77
2022-12-29T17:41:14.697Z,38.71
2022-12-29T17:43:45.550Z,38.76
2022-12-29T17:46:18.337Z,38.82
2022-12-29T17:48:53.536Z,38.87
2022-12-29T17:51:23.174Z,38.89
2022-12-29T17:53:57.235Z,39.33
2022-12-29T17:56:32.143Z,39.05
2022-12-29T17:59:03.087Z,38.90
2022-12-29T18:01:35.898Z,38.53
2022-12-29T18:04:08.835Z,38.87
2022-12-29T18:06:36.427Z,38.98
2022-12-29T18:09:04.751Z,38.71
2022-12-29T18:11:37.943Z,38.85
2022-12-29T18:14:12.257Z,38.83
2022-12-29T18:16:44.755Z,39.09
2022-12-29T18:19:12.130Z,38.92
2022-12-29T18:21:42.307Z,39.08
2022-12-29T18:24:18.775Z,38.90
2022-12-29T18:26:49.324Z,38.95
2022-12-29T18:29:21.612Z,38.87
2022-12-29T18:31:49.246Z,38.70
2022-12-29T18:34:20.519Z,38.76
2022-12-29T18:36:53.459Z,38.55
2022-12-29T18:39:24.218Z,39.07
2022-12-29T18:42:04.192Z,38.80
2022-12-29T18:44:31.613Z,38.73
2022-12-29T18:46:59.261Z,38.69
2022-12-29T18:49:29.281Z,38.94
2022-12-29T18:51:57.608Z,38.92
2022-12-29T18:54:31.217Z,38.86
2022-12-29T18:56:59.718Z,38.88
2022-12-29T18:59:32.038Z,38.90
2022-12-29T19:02:01.889Z,38.82
2022-12-29T19:04:31.692Z,38.74
2022-12-29T19:06:59.324Z,38.71
2022-12-29T19:09:29.679Z,38.50
2022-12-29T19:12:00.409Z,38.69
2022-12-29T19:14:33.073Z,38.74
2022-12-29T19:17:00.541Z,38.69
2022-12-29T19:19:30.855Z,38.49
2022-12-29T19:22:01.056Z,38.64
2022-12-29T19:24:28.417Z,38.55
2022-12-29T19:27:01.530Z,38.52
2022-12-29T19:29:31.524Z,38.35
2022-12-29T19:32:01.355Z,38.63
2022-12-29T19:34:28.614Z,38.73
2022-12-29T19:36:58.408Z,38.56
2022-12-29T19:39:26.148Z,38.43
2022-12-29T19:41:59.037Z,38.48
2022-12-29T19:44:32.154Z,38.37
2022-12-29T19:46:59.828Z,38.84
2022-12-29T19:49:27.355Z,38.62
2022-12-29T19:51:56.112Z,38.68
2022-12-29T19:54:23.452Z,38.52
2022-12-29T19:56:53.529Z,38.71
2022-12-29T19:59:21.969Z,38.67
2022-12-29T20:01:52.387Z,38.55
2022-12-29T20:04:22.231Z,38.46
2022-12-29T20:06:50.030Z,38.69
2022-12-29T20:09:20.364Z,38.46
2022-12-29T20:11:50.953Z,38.57
2022-12-29T20:14:21.206Z,38.43
2022-12-29T20:17:10.067Z,38.56
2022-12-29T20:19:42.633Z,38.62
2022-12-29T20:22:10.126Z,38.51
2022-12-29T20:24:45.188Z,38.39
2022-12-29T20:27:20.647Z,38.40
2022-12-29T20:29:52.415Z,38.27
2022-12-29T20:32:25.285Z,38.25
2022-12-29T20:34:54.092Z,38.42
2022-12-29T20:37:22.326Z,38.37
2022-12-29T20:39:52.498Z,38.40
2022-12-29T20:42:22.140Z,38.43
2022-12-29T20:44:50.932Z,38.21
2022-12-29T20:47:18.321Z,38.53
2022-12-29T20:49:50.486Z,38.35
2022-12-29T20:52:20.951Z,38.49
2022-12-29T20:54:48.575Z,38.60
2022-12-29T20:57:18.394Z,38.36
2022-12-29T20:59:48.723Z,38.48
2022-12-29T21:02:23.000Z,38.32
2022-12-29T21:05:22.729Z,38.50
2022-12-29T21:07:38.684Z,38.44
2022-12-29T21:10:08.853Z,38.53
2022-12-29T21:12:38.768Z,38.46
2022-12-29T21:15:06.747Z,38.66
2022-12-29T21:17:37.363Z,38.65
2022-12-29T21:20:05.059Z,38.57
2022-12-29T21:22:32.554Z,38.42
2022-12-29T21:24:59.950Z,38.42
2022-12-29T21:27:32.569Z,38.50
2022-12-29T21:30:00.178Z,38.38
2022-12-29T21:32:27.969Z,38.59
2022-12-29T21:35:00.201Z,38.48
2022-12-29T21:37:28.162Z,38.50
2022-12-29T21:39:58.373Z,38.37
2022-12-29T21:42:28.698Z,38.32
2022-12-29T21:45:20.895Z,38.27
2022-12-29T21:48:16.686Z,38.26
2022-12-29T21:51:06.964Z,38.23
2022-12-29T21:53:39.654Z,38.32
2022-12-29T21:56:09.132Z,38.44
2022-12-29T21:58:57.226Z,38.40
2022-12-29T22:01:45.116Z,38.41
2022-12-29T22:04:32.813Z,38.12
2022-12-29T22:07:20.581Z,38.41
2022-12-29T22:10:06.707Z,38.12
2022-12-29T22:12:53.965Z,38.23
2022-12-29T22:15:22.168Z,38.25
2022-12-29T22:17:54.010Z,38.13
2022-12-29T22:20:24.990Z,38.36
2022-12-29T22:22:55.559Z,38.36
2022-12-29T22:25:23.823Z,38.20
2022-12-29T22:27:59.254Z,38.39
2022-12-29T22:30:28.753Z,38.38
2022-12-29T22:33:02.231Z,38.39
2022-12-29T22:35:30.581Z,38.07
2022-12-29T22:38:00.721Z,38.26
2022-12-29T22:40:31.158Z,38.12
2022-12-29T22:43:09.466Z,38.21
2022-12-29T22:45:42.938Z,38.26
2022-12-29T22:48:13.353Z,38.42
2022-12-29T22:50:40.804Z,38.60
2022-12-29T22:53:08.162Z,38.40
2022-12-29T22:55:35.675Z,38.20
2022-12-29T22:58:03.395Z,38.28
2022-12-29T23:00:30.917Z,38.49
2022-12-29T23:02:59.647Z,38.34
2022-12-29T23:05:30.009Z,38.46
2022-12-29T23:08:00.202Z,37.88
2022-12-29T23:10:27.984Z,38.23
2022-12-29T23:12:55.513Z,37.64
2022-12-29T23:15:25.806Z,37.45
2022-12-29T23:17:55.606Z,37.37
2022-12-29T23:20:28.240Z,37.05
2022-12-29T23:23:00.581Z,37.11
2022-12-29T23:25:29.369Z,36.79
2022-12-29T23:27:59.565Z,36.65
2022-12-29T23:30:27.119Z,36.78
2022-12-29T23:32:56.867Z,36.51
2022-12-29T23:35:24.519Z,36.44
2022-12-29T23:37:54.446Z,36.61
2022-12-29T23:40:24.423Z,36.52
2022-12-29T23:42:57.013Z,36.46
2022-12-29T23:45:24.542Z,36.51
2022-12-29T23:47:51.953Z,36.25
2022-12-29T23:50:20.209Z,36.55
2022-12-29T23:52:48.042Z,36.29
2022-12-29T23:55:18.264Z,36.33
2022-12-29T23:57:46.663Z,36.14
